Time;durP1;ratioP1;P1;durP2;ratioP2;P2;SDS_P1;SDS_P2;PMS_P1;PMS_P2;Temp;Humidity;BMP_temperature;BMP_pressure;BME280_temperature;BME280_humidity;BME280_pressure;Samples;Min_cycle;Max_cycle;Signal;HPM_P1;HPM_P2
2022/06/05 00:00:44;;;;;;;4.47;3.55;;;17.60;99.90;;;;;;5070770;28;20216;-69
2022/06/05 00:03:23;;;;;;;3.25;2.95;;;17.60;99.90;;;;;;5071401;28;20204;-69
2022/06/05 00:06:00;;;;;;;3.97;3.28;;;17.50;99.90;;;;;;5077279;28;20208;-68
2022/06/05 00:08:36;;;;;;;3.88;3.50;;;17.40;99.90;;;;;;5076980;28;20200;-69
2022/06/05 00:11:03;;;;;;;4.03;3.27;;;17.40;99.90;;;;;;5078028;28;20597;-69
2022/06/05 00:13:37;;;;;;;3.80;3.30;;;17.40;99.90;;;;;;5080778;28;20221;-69
2022/06/05 00:16:04;;;;;;;3.70;3.40;;;17.30;99.90;;;;;;5067261;28;20594;-69
2022/06/05 00:18:35;;;;;;;4.18;2.95;;;17.30;99.90;;;;;;5077343;28;20233;-68
2022/06/05 00:21:03;;;;;;;3.60;3.30;;;17.20;99.90;;;;;;5076117;28;20340;-69
2022/06/05 00:23:30;;;;;;;4.93;3.20;;;17.20;99.90;;;;;;5071744;28;20542;-70
2022/06/05 00:26:03;;;;;;;4.38;3.83;;;17.10;99.90;;;;;;5076811;28;20208;-68
2022/06/05 00:28:38;;;;;;;4.15;3.75;;;17.10;99.90;;;;;;5074908;28;20201;-70
2022/06/05 00:31:12;;;;;;;3.58;3.20;;;17.10;99.90;;;;;;5076511;28;20192;-69
2022/06/05 00:33:41;;;;;;;4.45;3.15;;;17.00;99.90;;;;;;5078775;28;20236;-70
2022/06/05 00:36:23;;;;;;;5.65;3.30;;;16.90;99.90;;;;;;5076240;28;20273;-69
2022/06/05 00:38:56;;;;;;;3.67;3.15;;;16.90;99.90;;;;;;5073202;28;20216;-69
2022/06/05 00:41:53;;;;;;;5.20;3.40;;;16.90;99.90;;;;;;5076567;28;20220;-69
2022/06/05 00:44:24;;;;;;;3.45;3.13;;;16.90;99.90;;;;;;5077297;28;20197;-69
2022/06/05 00:46:51;;;;;;;3.15;2.78;;;16.80;99.90;;;;;;5077141;28;20209;-68
2022/06/05 00:49:22;;;;;;;5.63;3.13;;;16.80;99.90;;;;;;5074964;28;20675;-69
2022/06/05 00:51:49;;;;;;;6.70;3.03;;;16.70;99.90;;;;;;5075757;28;20205;-69
2022/06/05 00:54:16;;;;;;;2.83;2.50;;;16.70;99.90;;;;;;5077903;28;20311;-69
2022/06/05 00:56:43;;;;;;;3.67;2.83;;;16.70;99.90;;;;;;5086887;28;20220;-69
2022/06/05 00:59:13;;;;;;;5.63;3.37;;;16.70;99.90;;;;;;5082985;28;20211;-68
2022/06/05 01:01:42;;;;;;;4.28;2.97;;;16.60;99.90;;;;;;5078978;28;20227;-69
2022/06/05 01:04:09;;;;;;;3.07;2.87;;;16.60;99.90;;;;;;5072090;28;20577;-68
2022/06/05 01:06:37;;;;;;;7.57;2.95;;;16.50;99.90;;;;;;5080502;28;20217;-69
2022/06/05 01:09:05;;;;;;;4.60;2.83;;;16.50;99.90;;;;;;5081157;28;20201;-70
2022/06/05 01:11:42;;;;;;;6.50;2.80;;;16.50;99.90;;;;;;5080159;28;20415;-68
2022/06/05 01:14:14;;;;;;;5.27;2.80;;;16.40;99.90;;;;;;5072681;28;20229;-68
2022/06/05 01:16:50;;;;;;;3.13;2.83;;;16.40;99.90;;;;;;5066514;28;20751;-68
2022/06/05 01:19:34;;;;;;;4.15;3.00;;;16.40;99.90;;;;;;5070957;28;20208;-68
2022/06/05 01:22:31;;;;;;;3.10;2.80;;;16.30;99.90;;;;;;5074147;28;20202;-69
2022/06/05 01:25:18;;;;;;;5.47;2.80;;;16.30;99.90;;;;;;5071211;28;20197;-69
2022/06/05 01:27:51;;;;;;;4.33;3.03;;;16.20;99.90;;;;;;5067772;28;20213;-68
2022/06/05 01:30:21;;;;;;;3.57;2.90;;;16.20;99.90;;;;;;5075899;28;20225;-68
2022/06/05 01:32:55;;;;;;;2.87;2.50;;;16.20;99.90;;;;;;5069857;28;20209;-69
2022/06/05 01:35:26;;;;;;;3.23;2.90;;;16.10;99.90;;;;;;5078116;28;20220;-69
2022/06/05 01:37:59;;;;;;;5.00;2.73;;;16.10;99.90;;;;;;5077072;28;20213;-68
2022/06/05 01:40:30;;;;;;;3.40;3.10;;;16.10;99.90;;;;;;5084171;28;20553;-68
2022/06/05 01:43:05;;;;;;;6.07;2.90;;;16.10;99.90;;;;;;5078885;28;20208;-68
2022/06/05 01:45:37;;;;;;;5.17;3.10;;;16.10;99.90;;;;;;5075077;28;20197;-68
2022/06/05 01:48:08;;;;;;;3.50;2.90;;;16.00;99.90;;;;;;5083946;28;20213;-68
2022/06/05 01:50:40;;;;;;;3.00;2.70;;;16.00;99.90;;;;;;5072411;28;20202;-69
2022/06/05 01:53:13;;;;;;;3.13;2.57;;;16.00;99.90;;;;;;5078577;28;20197;-68
2022/06/05 01:55:45;;;;;;;2.97;2.77;;;15.90;99.90;;;;;;5070899;28;20232;-68
2022/06/05 01:58:17;;;;;;;3.85;3.30;;;15.90;99.90;;;;;;5071565;28;20203;-69
2022/06/05 02:00:49;;;;;;;4.47;2.60;;;15.90;99.90;;;;;;5073467;28;20209;-69
2022/06/05 02:03:20;;;;;;;3.10;2.80;;;15.90;99.90;;;;;;5083339;28;20209;-69
2022/06/05 02:05:53;;;;;;;4.17;2.70;;;15.80;99.80;;;;;;5073909;28;20201;-68
2022/06/05 02:08:25;;;;;;;4.07;3.13;;;15.80;99.80;;;;;;5077649;28;20221;-68
2022/06/05 02:10:58;;;;;;;3.03;2.70;;;15.70;99.80;;;;;;5081600;28;20209;-67
2022/06/05 02:13:26;;;;;;;4.17;2.50;;;15.80;99.80;;;;;;5076745;28;20201;-69
2022/06/05 02:15:53;;;;;;;4.90;2.90;;;15.70;99.60;;;;;;5077262;28;20240;-68
2022/06/05 02:18:20;;;;;;;2.93;2.40;;;15.70;99.60;;;;;;5083818;28;20205;-69
2022/06/05 02:20:48;;;;;;;7.03;3.17;;;15.60;99.40;;;;;;5078373;28;20201;-68
2022/06/05 02:23:18;;;;;;;4.97;2.47;;;15.60;99.40;;;;;;5083321;28;20205;-67
2022/06/05 02:25:46;;;;;;;2.67;2.47;;;15.60;99.50;;;;;;5080607;28;20208;-68
2022/06/05 02:28:14;;;;;;;3.13;2.83;;;15.60;99.10;;;;;;5078129;28;20201;-67
2022/06/05 02:30:47;;;;;;;3.90;2.90;;;15.50;98.90;;;;;;5078173;28;20205;-67
2022/06/05 02:33:24;;;;;;;3.93;3.00;;;15.50;98.90;;;;;;5075266;28;20216;-68
2022/06/05 02:36:05;;;;;;;5.20;3.10;;;15.40;99.00;;;;;;5079764;28;20209;-69
2022/06/05 02:38:42;;;;;;;3.00;2.70;;;15.40;99.00;;;;;;5076502;28;20205;-69
2022/06/05 02:41:13;;;;;;;6.17;3.10;;;15.40;99.00;;;;;;5074916;28;20216;-68
2022/06/05 02:44:28;;;;;;;3.40;3.03;;;15.40;99.00;;;;;;5077426;28;20197;-68
2022/06/05 02:46:46;;;;;;;3.80;3.40;;;15.40;99.00;;;;;;5088669;28;20241;-68
2022/06/05 02:49:22;;;;;;;5.63;3.23;;;15.50;99.00;;;;;;5078917;28;20217;-69
2022/06/05 02:51:49;;;;;;;4.33;2.90;;;15.50;99.00;;;;;;5076208;28;20221;-68
2022/06/05 02:54:21;;;;;;;3.57;3.10;;;15.40;99.00;;;;;;5073724;28;20234;-68
2022/06/05 02:56:48;;;;;;;3.67;2.93;;;15.50;99.00;;;;;;5068965;28;20654;-68
2022/06/05 02:59:15;;;;;;;5.57;2.97;;;15.50;99.00;;;;;;5074572;28;20688;-68
2022/06/05 03:04:27;;;;;;;5.27;3.20;;;15.50;99.30;;;;;;5077495;28;20204;-68
2022/06/05 03:06:53;;;;;;;3.37;3.07;;;15.50;98.90;;;;;;5078624;28;20211;-67
2022/06/05 03:09:20;;;;;;;3.43;3.13;;;15.50;99.00;;;;;;5077694;28;20197;-67
2022/06/05 03:11:47;;;;;;;3.30;2.83;;;15.50;99.00;;;;;;5078477;28;20213;-69
2022/06/05 03:14:14;;;;;;;4.23;2.90;;;15.50;99.00;;;;;;5072983;28;20209;-69
2022/06/05 03:16:41;;;;;;;3.70;2.87;;;15.60;98.90;;;;;;5064038;28;20606;-68
2022/06/05 03:19:09;;;;;;;3.17;2.80;;;15.70;99.10;;;;;;5077896;28;20209;-68
2022/06/05 03:21:38;;;;;;;4.23;3.10;;;15.70;98.90;;;;;;5076573;28;20677;-68
2022/06/05 03:24:06;;;;;;;5.20;2.93;;;15.70;98.90;;;;;;5075336;28;20220;-67
2022/06/05 03:26:33;;;;;;;5.13;3.33;;;15.80;99.00;;;;;;5078072;28;20210;-68
2022/06/05 03:29:00;;;;;;;4.33;3.50;;;15.80;98.90;;;;;;5078340;28;20225;-68
2022/06/05 03:31:27;;;;;;;4.20;3.07;;;15.90;98.80;;;;;;5077477;28;20205;-68
2022/06/05 03:33:54;;;;;;;5.90;3.37;;;15.90;98.80;;;;;;5067333;28;20670;-69
2022/06/05 03:36:22;;;;;;;4.30;2.80;;;16.00;98.80;;;;;;5072398;28;20232;-68
2022/06/05 03:38:48;;;;;;;5.80;3.17;;;16.00;98.70;;;;;;5070458;28;20216;-68
2022/06/05 03:41:16;;;;;;;3.30;2.93;;;16.00;98.50;;;;;;5085739;28;20215;-69
2022/06/05 03:43:43;;;;;;;3.83;3.13;;;16.00;98.50;;;;;;5075281;28;20219;-68
2022/06/05 03:46:12;;;;;;;3.67;3.17;;;16.10;98.50;;;;;;5073021;28;20196;-68
2022/06/05 03:48:40;;;;;;;5.30;3.50;;;16.10;98.50;;;;;;5076741;28;20601;-68
2022/06/05 03:51:07;;;;;;;4.93;3.80;;;16.10;98.50;;;;;;5081843;28;20197;-68
2022/06/05 03:53:35;;;;;;;4.47;3.17;;;16.10;98.60;;;;;;5076302;28;20213;-68
2022/06/05 03:56:02;;;;;;;3.90;3.30;;;16.00;98.50;;;;;;5061258;28;20221;-65
2022/06/05 03:58:28;;;;;;;4.70;3.37;;;16.10;98.70;;;;;;5074793;28;20221;-66
2022/06/05 04:00:55;;;;;;;3.90;3.33;;;16.00;98.60;;;;;;5075038;28;20646;-66
2022/06/05 04:03:22;;;;;;;5.00;3.47;;;16.00;98.60;;;;;;5073636;28;20675;-66
2022/06/05 04:05:49;;;;;;;4.23;3.40;;;16.00;98.80;;;;;;5073613;28;20205;-66
2022/06/05 04:08:17;;;;;;;3.40;3.10;;;15.90;98.90;;;;;;5060761;28;20201;-65
2022/06/05 04:10:45;;;;;;;4.07;3.70;;;16.00;99.00;;;;;;5074916;28;20554;-67
2022/06/05 04:13:11;;;;;;;4.00;3.47;;;15.90;98.90;;;;;;5073614;28;20692;-67
2022/06/05 04:15:39;;;;;;;4.07;3.63;;;16.00;99.00;;;;;;5075143;28;20229;-67
2022/06/05 04:18:06;;;;;;;4.03;3.63;;;15.90;98.90;;;;;;5074190;28;20271;-67
2022/06/05 04:20:33;;;;;;;5.37;3.80;;;15.90;99.00;;;;;;5073052;28;20654;-67
2022/06/05 04:23:02;;;;;;;7.97;3.80;;;15.90;99.10;;;;;;5074238;28;20259;-66
2022/06/05 04:25:29;;;;;;;4.43;3.43;;;15.90;99.20;;;;;;5071936;28;20239;-68
2022/06/05 04:27:57;;;;;;;4.43;4.03;;;15.90;99.20;;;;;;5063623;28;20209;-67
2022/06/05 04:30:26;;;;;;;3.80;3.50;;;16.00;99.30;;;;;;5073188;28;20713;-67
2022/06/05 04:32:52;;;;;;;4.20;3.80;;;16.00;99.30;;;;;;5077311;28;20237;-66
2022/06/05 04:35:19;;;;;;;3.87;3.57;;;16.00;99.30;;;;;;5079762;28;20217;-69
2022/06/05 04:37:46;;;;;;;4.10;3.47;;;16.00;99.30;;;;;;5080684;28;20212;-68
2022/06/05 04:40:13;;;;;;;4.33;3.93;;;16.00;99.20;;;;;;5079510;28;20641;-69
2022/06/05 04:42:40;;;;;;;4.33;3.33;;;16.00;99.10;;;;;;5066708;28;20205;-68
2022/06/05 04:45:09;;;;;;;4.83;3.63;;;15.90;99.00;;;;;;5080425;28;20212;-68
2022/06/05 04:47:36;;;;;;;5.87;3.90;;;15.90;99.00;;;;;;5079096;28;20216;-68
2022/06/05 04:50:03;;;;;;;5.97;3.77;;;15.90;99.00;;;;;;5081165;28;20216;-68
2022/06/05 04:52:30;;;;;;;5.07;3.70;;;15.80;99.00;;;;;;5079170;28;20206;-69
2022/06/05 04:54:57;;;;;;;4.43;3.70;;;15.90;99.00;;;;;;5071974;28;20225;-68
2022/06/05 04:57:24;;;;;;;7.87;3.73;;;15.90;99.20;;;;;;5095340;28;20209;-68
2022/06/05 04:59:51;;;;;;;4.33;3.70;;;16.00;99.30;;;;;;5079560;28;20204;-66
2022/06/05 05:02:19;;;;;;;4.10;3.70;;;16.00;99.00;;;;;;5071591;28;20209;-68
2022/06/05 05:04:47;;;;;;;3.67;3.27;;;16.00;98.70;;;;;;5076345;28;20592;-68
2022/06/05 05:07:14;;;;;;;4.00;3.60;;;16.00;98.40;;;;;;5075727;28;20208;-68
2022/06/05 05:09:41;;;;;;;3.77;3.30;;;16.10;98.20;;;;;;5078633;28;20209;-68
2022/06/05 05:12:09;;;;;;;4.13;3.30;;;16.10;97.90;;;;;;5075947;28;20205;-68
2022/06/05 05:14:36;;;;;;;3.90;3.20;;;16.10;97.80;;;;;;5091908;28;20668;-69
2022/06/05 05:17:04;;;;;;;4.00;3.20;;;16.10;97.50;;;;;;5075122;28;20237;-68
2022/06/05 05:19:32;;;;;;;3.88;3.35;;;16.10;97.20;;;;;;5075218;28;20212;-68
2022/06/05 05:21:59;;;;;;;3.23;2.73;;;16.10;97.00;;;;;;5077816;28;20205;-70
2022/06/05 05:24:25;;;;;;;3.53;2.80;;;16.20;96.70;;;;;;5071374;28;20210;-70
2022/06/05 05:26:52;;;;;;;5.43;2.97;;;16.20;96.40;;;;;;5076781;28;20280;-68
2022/06/05 05:29:19;;;;;;;3.77;2.80;;;16.30;96.20;;;;;;5071805;28;20605;-70
2022/06/05 05:31:46;;;;;;;2.90;2.70;;;16.30;95.70;;;;;;5078162;28;20574;-70
2022/06/05 05:34:14;;;;;;;3.30;3.00;;;16.30;95.40;;;;;;5078094;28;20747;-69
2022/06/05 05:36:42;;;;;;;3.87;2.90;;;16.30;95.40;;;;;;5074418;28;20236;-69
2022/06/05 05:42:06;;;;;;;3.13;2.83;;;16.40;95.10;;;;;;5084592;28;20234;-68
2022/06/05 05:44:35;;;;;;;3.97;3.10;;;16.50;95.00;;;;;;5075818;28;20201;-69
2022/06/05 05:47:02;;;;;;;3.37;2.67;;;16.50;94.70;;;;;;5077547;28;20223;-68
2022/06/05 05:49:29;;;;;;;5.47;2.80;;;16.60;94.50;;;;;;5075466;28;20197;-69
2022/06/05 05:51:57;;;;;;;3.20;2.90;;;16.60;94.30;;;;;;5079256;28;20224;-69
2022/06/05 05:54:24;;;;;;;3.80;2.60;;;16.70;94.40;;;;;;5077908;28;20212;-69
2022/06/05 05:56:51;;;;;;;3.80;2.90;;;16.80;94.50;;;;;;5083816;28;20225;-69
2022/06/05 05:59:19;;;;;;;3.60;2.87;;;16.90;94.50;;;;;;5078501;28;20205;-69
2022/06/05 06:01:46;;;;;;;3.80;2.60;;;16.90;94.30;;;;;;5088214;28;20274;-68
2022/06/05 06:04:13;;;;;;;3.78;2.67;;;17.10;94.10;;;;;;5076683;28;20209;-69
2022/06/05 06:06:42;;;;;;;2.67;2.47;;;17.10;93.70;;;;;;5076618;28;20201;-69
2022/06/05 06:09:10;;;;;;;5.25;2.90;;;17.10;93.50;;;;;;5066413;28;20210;-69
2022/06/05 06:11:38;;;;;;;4.30;3.05;;;17.20;93.30;;;;;;5084903;28;20212;-69
2022/06/05 06:14:04;;;;;;;3.47;2.70;;;17.30;93.50;;;;;;5093267;28;20201;-70
2022/06/05 06:16:31;;;;;;;3.78;2.70;;;17.30;93.40;;;;;;5092384;28;20240;-69
2022/06/05 06:18:58;;;;;;;3.08;2.72;;;17.40;93.40;;;;;;5091987;28;20205;-69
2022/06/05 06:21:26;;;;;;;3.13;2.80;;;17.50;93.40;;;;;;5090497;28;20209;-69
2022/06/05 06:23:53;;;;;;;4.43;2.80;;;17.50;93.40;;;;;;5082483;28;20197;-69
2022/06/05 06:26:21;;;;;;;3.15;2.85;;;17.70;93.50;;;;;;5077822;28;20201;-66
2022/06/05 06:28:48;;;;;;;4.22;2.80;;;17.70;93.50;;;;;;5076637;28;20293;-70
2022/06/05 06:31:18;;;;;;;3.25;2.95;;;17.80;93.60;;;;;;5077954;28;20205;-69
2022/06/05 06:33:48;;;;;;;3.28;2.97;;;17.80;93.40;;;;;;5075253;28;20206;-69
2022/06/05 06:36:16;;;;;;;3.25;2.95;;;17.80;93.40;;;;;;5080917;28;20216;-68
2022/06/05 06:38:43;;;;;;;4.28;3.30;;;17.90;93.40;;;;;;5077582;28;20208;-69
2022/06/05 06:41:11;;;;;;;3.58;3.03;;;17.90;93.50;;;;;;5087594;28;20201;-70
2022/06/05 06:43:41;;;;;;;3.10;2.80;;;18.00;93.70;;;;;;5074750;28;20633;-71
2022/06/05 06:46:08;;;;;;;4.63;2.60;;;18.10;93.70;;;;;;5067791;28;20201;-71
2022/06/05 06:48:35;;;;;;;3.65;3.22;;;18.20;93.50;;;;;;5079442;28;20217;-71
2022/06/05 06:51:03;;;;;;;5.22;3.50;;;18.20;93.40;;;;;;5080276;28;20197;-72
2022/06/05 06:53:32;;;;;;;3.15;2.88;;;18.30;93.40;;;;;;5075797;28;20209;-73
2022/06/05 06:55:59;;;;;;;5.30;3.50;;;18.40;93.40;;;;;;5078759;28;20221;-70
2022/06/05 06:58:26;;;;;;;4.00;3.60;;;18.50;93.50;;;;;;5080444;28;20200;-71
2022/06/05 07:00:54;;;;;;;4.72;3.40;;;18.60;93.40;;;;;;5077507;28;20713;-73
2022/06/05 07:03:21;;;;;;;6.45;3.42;;;18.70;93.60;;;;;;5090693;28;20215;-72
2022/06/05 07:05:48;;;;;;;4.72;3.55;;;18.80;93.70;;;;;;5078096;28;20582;-73
2022/06/05 07:08:15;;;;;;;4.75;3.10;;;18.90;93.70;;;;;;5085166;28;20309;-69
2022/06/05 07:10:41;;;;;;;3.60;3.30;;;19.00;93.60;;;;;;5073808;28;20202;-68
2022/06/05 07:13:08;;;;;;;4.05;3.65;;;19.10;93.80;;;;;;5077443;28;20202;-70
2022/06/05 07:15:35;;;;;;;6.35;3.60;;;19.20;93.30;;;;;;5075899;28;20584;-67
2022/06/05 07:18:05;;;;;;;4.80;3.30;;;19.40;93.40;;;;;;5076283;28;20278;-68
2022/06/05 07:20:33;;;;;;;6.43;3.30;;;19.50;93.30;;;;;;5075764;28;20208;-70
2022/06/05 07:23:01;;;;;;;5.10;3.25;;;19.70;92.90;;;;;;5069111;28;20214;-68
2022/06/05 07:25:28;;;;;;;3.88;3.17;;;19.80;92.80;;;;;;5073526;28;20205;-67
2022/06/05 07:27:54;;;;;;;7.32;3.03;;;19.90;92.60;;;;;;5068413;28;20622;-69
2022/06/05 07:30:21;;;;;;;3.38;2.88;;;20.10;92.20;;;;;;5070413;28;20225;-68
2022/06/05 07:32:49;;;;;;;2.90;2.60;;;20.20;91.60;;;;;;5076121;28;20202;-68
2022/06/05 07:35:17;;;;;;;3.90;2.83;;;20.30;91.00;;;;;;5080497;28;20224;-69
2022/06/05 07:37:44;;;;;;;3.80;2.47;;;20.40;90.40;;;;;;5066566;28;20883;-68
2022/06/05 07:40:12;;;;;;;3.60;2.08;;;20.50;89.30;;;;;;5076934;28;20673;-67
2022/06/05 07:42:40;;;;;;;2.72;2.42;;;20.60;86.50;;;;;;5074595;28;20705;-67
2022/06/05 07:45:08;;;;;;;3.90;2.67;;;20.70;86.10;;;;;;5075282;28;20215;-69
2022/06/05 07:47:35;;;;;;;2.95;2.65;;;20.80;86.70;;;;;;5086894;28;20539;-66
2022/06/05 07:50:01;;;;;;;3.05;2.75;;;20.80;85.90;;;;;;5083564;28;20200;-71
2022/06/05 07:55:14;;;;;;;2.80;2.60;;;20.90;86.00;;;;;;5074450;28;20208;-69
2022/06/05 07:57:41;;;;;;;3.85;2.80;;;21.00;86.70;;;;;;5074088;28;20696;-68
2022/06/05 08:00:11;;;;;;;2.55;2.22;;;21.00;86.00;;;;;;5075925;28;20219;-70
2022/06/05 08:02:39;;;;;;;3.55;2.60;;;21.20;85.60;;;;;;5076751;28;20244;-67
2022/06/05 08:05:07;;;;;;;3.47;2.50;;;21.30;85.50;;;;;;5095050;28;20215;-70
2022/06/05 08:07:36;;;;;;;2.30;2.00;;;21.50;85.60;;;;;;5083908;28;20202;-68
2022/06/05 08:10:06;;;;;;;2.40;2.20;;;21.60;84.80;;;;;;5073890;28;20213;-68
2022/06/05 08:12:35;;;;;;;3.83;2.20;;;21.70;82.00;;;;;;5076317;28;20287;-68
2022/06/05 08:15:05;;;;;;;3.28;2.53;;;21.70;81.40;;;;;;5075648;28;20252;-69
2022/06/05 08:17:33;;;;;;;2.97;2.13;;;21.80;82.80;;;;;;5069582;28;20670;-69
2022/06/05 08:20:00;;;;;;;4.65;2.35;;;21.90;82.20;;;;;;5077594;28;20208;-69
2022/06/05 08:22:28;;;;;;;2.65;2.10;;;22.00;81.20;;;;;;5081011;28;20212;-68
2022/06/05 08:24:56;;;;;;;2.53;2.20;;;22.00;81.90;;;;;;5075195;28;20228;-69
2022/06/05 08:27:25;;;;;;;3.75;2.63;;;22.10;81.40;;;;;;5074307;28;20201;-68
2022/06/05 08:29:55;;;;;;;3.67;2.30;;;22.30;80.30;;;;;;5073713;28;20255;-68
2022/06/05 08:32:23;;;;;;;3.22;2.20;;;22.30;79.10;;;;;;5076398;28;20211;-68
2022/06/05 08:34:50;;;;;;;5.88;2.38;;;22.40;78.80;;;;;;5074494;28;20647;-69
2022/06/05 08:43:16;;;;;;;3.95;2.58;;;22.80;78.40;;;;;;5061740;28;20200;-66
2022/06/05 08:45:48;;;;;;;2.88;2.67;;;23.00;78.30;;;;;;5079642;28;20209;-68
2022/06/05 08:48:21;;;;;;;4.35;2.97;;;23.10;76.60;;;;;;5086941;28;20255;-68
2022/06/05 08:50:50;;;;;;;3.50;2.47;;;23.30;76.90;;;;;;5089168;28;20232;-69
2022/06/05 08:53:22;;;;;;;2.63;2.42;;;23.40;76.00;;;;;;5083671;28;20685;-68
2022/06/05 08:55:53;;;;;;;3.78;2.40;;;23.50;75.20;;;;;;5086700;28;20541;-67
2022/06/05 08:58:26;;;;;;;2.60;2.40;;;23.50;75.20;;;;;;5084468;28;20204;-68
2022/06/05 09:00:57;;;;;;;4.05;2.00;;;23.60;74.90;;;;;;5089691;28;20291;-68
2022/06/05 09:03:32;;;;;;;2.42;2.20;;;23.70;73.90;;;;;;5074841;28;20654;-68
2022/06/05 09:06:05;;;;;;;4.75;2.13;;;23.90;72.40;;;;;;5073961;28;20262;-67
2022/06/05 09:08:37;;;;;;;2.33;2.10;;;24.00;71.50;;;;;;5062290;28;20202;-67
2022/06/05 09:11:12;;;;;;;2.92;2.63;;;24.00;69.80;;;;;;5067212;28;20201;-67
2022/06/05 09:13:49;;;;;;;2.60;2.40;;;24.00;68.40;;;;;;5070343;28;20204;-67
2022/06/05 09:16:21;;;;;;;3.63;2.35;;;24.00;69.20;;;;;;5069730;28;20680;-67
2022/06/05 09:18:49;;;;;;;2.33;2.13;;;24.10;68.90;;;;;;5083675;28;20656;-67
2022/06/05 09:21:23;;;;;;;2.13;1.92;;;24.20;68.60;;;;;;5080620;28;20209;-68
2022/06/05 09:23:59;;;;;;;2.33;2.05;;;24.30;67.80;;;;;;5076301;28;20201;-67
2022/06/05 09:26:34;;;;;;;1.73;1.63;;;24.50;66.80;;;;;;5076305;28;20211;-67
2022/06/05 09:29:25;;;;;;;1.80;1.70;;;24.60;65.60;;;;;;5074902;28;20681;-66
2022/06/05 09:32:02;;;;;;;2.03;1.92;;;24.70;64.10;;;;;;5074160;28;20311;-66
2022/06/05 09:34:34;;;;;;;2.65;2.20;;;24.80;62.90;;;;;;5076559;28;20567;-66
2022/06/05 09:37:10;;;;;;;2.17;1.67;;;24.80;62.10;;;;;;5076087;28;20218;-66
2022/06/05 09:39:42;;;;;;;2.13;2.00;;;25.00;62.50;;;;;;5076255;28;20566;-67
2022/06/05 09:42:24;;;;;;;3.10;1.85;;;25.10;62.20;;;;;;5076614;28;20703;-66
2022/06/05 09:45:06;;;;;;;2.72;1.90;;;25.20;62.10;;;;;;5075413;28;20650;-67
2022/06/05 09:47:38;;;;;;;2.28;2.03;;;25.30;62.40;;;;;;5076916;28;20201;-66
2022/06/05 09:50:19;;;;;;;2.22;2.10;;;25.50;62.40;;;;;;5076261;28;20209;-67
2022/06/05 09:52:48;;;;;;;2.28;2.08;;;25.60;61.70;;;;;;5076281;28;20657;-67
2022/06/05 09:55:19;;;;;;;2.95;2.10;;;25.70;61.40;;;;;;5076192;28;20205;-68
2022/06/05 10:00:48;;;;;;;2.13;1.83;;;26.00;59.40;;;;;;5073583;28;20582;-66
2022/06/05 10:03:21;;;;;;;2.97;2.17;;;26.10;59.50;;;;;;5075020;28;20213;-68
2022/06/05 10:06:20;;;;;;;4.78;2.20;;;26.10;59.50;;;;;;5078126;28;20206;-67
2022/06/05 10:08:49;;;;;;;2.20;2.00;;;26.00;59.40;;;;;;5076960;28;20209;-69
2022/06/05 10:11:24;;;;;;;3.55;2.20;;;26.00;59.20;;;;;;5077003;28;20212;-70
2022/06/05 10:14:05;;;;;;;2.20;2.00;;;25.90;59.20;;;;;;5088305;28;20672;-68
2022/06/05 10:16:38;;;;;;;4.10;2.20;;;25.90;59.80;;;;;;5076740;28;20244;-67
2022/06/05 10:19:25;;;;;;;2.20;1.67;;;26.00;59.40;;;;;;5077212;28;20206;-67
2022/06/05 10:22:00;;;;;;;3.58;1.95;;;26.20;58.60;;;;;;5070001;28;20198;-69
2022/06/05 10:24:35;;;;;;;3.60;2.05;;;26.30;58.40;;;;;;5070631;28;20200;-70
2022/06/05 10:27:04;;;;;;;2.85;1.90;;;26.40;58.10;;;;;;5078812;28;20212;-68
2022/06/05 10:29:38;;;;;;;2.15;1.77;;;26.60;58.00;;;;;;5091153;28;20221;-68
2022/06/05 10:32:12;;;;;;;2.50;1.60;;;26.80;57.20;;;;;;5075742;28;20234;-67
2022/06/05 10:34:49;;;;;;;4.20;1.60;;;26.90;56.10;;;;;;5077020;28;20209;-68
2022/06/05 10:37:22;;;;;;;2.15;1.95;;;26.90;55.90;;;;;;5078955;28;20255;-67
2022/06/05 10:39:59;;;;;;;3.35;1.60;;;26.90;55.20;;;;;;5076418;28;20228;-68
2022/06/05 10:42:32;;;;;;;2.05;1.85;;;26.90;54.30;;;;;;5077293;28;20684;-66
2022/06/05 10:45:18;;;;;;;2.35;1.95;;;26.90;54.00;;;;;;5075975;28;20217;-67
2022/06/05 10:48:00;;;;;;;2.55;1.63;;;26.90;53.40;;;;;;5075930;28;20205;-67
2022/06/05 10:50:32;;;;;;;2.10;2.00;;;26.90;53.70;;;;;;5075684;28;20331;-66
2022/06/05 10:53:13;;;;;;;3.20;2.05;;;27.00;54.00;;;;;;5076601;28;20209;-67
2022/06/05 10:55:54;;;;;;;3.15;1.88;;;27.10;53.50;;;;;;5076244;28;20201;-68
2022/06/05 10:58:25;;;;;;;2.08;1.90;;;27.20;53.40;;;;;;5076292;28;20219;-67
2022/06/05 11:01:02;;;;;;;3.22;2.40;;;27.10;53.00;;;;;;5090144;28;20638;-68
2022/06/05 11:03:41;;;;;;;2.65;2.20;;;27.20;53.30;;;;;;5068838;28;20197;-69
2022/06/05 11:06:21;;;;;;;2.65;1.83;;;27.30;53.80;;;;;;5079952;28;20197;-68
2022/06/05 11:08:58;;;;;;;2.17;1.77;;;27.30;54.10;;;;;;5075569;28;20677;-68
2022/06/05 11:14:21;;;;;;;13.50;2.58;;;27.20;53.60;;;;;;5072709;28;20224;-69
2022/06/05 11:16:55;;;;;;;5.13;1.98;;;27.40;53.70;;;;;;5078602;28;20331;-68
2022/06/05 11:19:32;;;;;;;2.65;1.80;;;27.50;53.70;;;;;;5084782;28;20203;-69
2022/06/05 11:22:02;;;;;;;2.35;2.10;;;27.60;53.40;;;;;;5075696;28;20582;-68
2022/06/05 11:24:32;;;;;;;2.75;2.00;;;27.70;53.30;;;;;;5071632;28;20205;-68
2022/06/05 11:27:09;;;;;;;2.38;1.67;;;27.80;52.30;;;;;;5074718;28;20196;-68
2022/06/05 11:29:47;;;;;;;2.25;1.50;;;27.80;51.00;;;;;;5072592;28;20647;-68
2022/06/05 11:32:29;;;;;;;2.85;1.88;;;27.80;50.40;;;;;;5072516;28;20204;-68
2022/06/05 11:35:00;;;;;;;2.35;1.90;;;27.60;49.40;;;;;;5062279;28;20659;-67
2022/06/05 11:37:42;;;;;;;2.25;1.80;;;27.40;49.70;;;;;;5062991;28;20223;-69
2022/06/05 11:40:19;;;;;;;2.53;1.65;;;27.20;49.40;;;;;;5074877;28;20209;-67
2022/06/05 11:42:51;;;;;;;2.35;1.90;;;27.00;50.50;;;;;;5079740;28;20200;-68
2022/06/05 11:45:47;;;;;;;3.45;1.83;;;27.00;51.30;;;;;;5086970;28;20205;-68
2022/06/05 11:48:23;;;;;;;3.92;1.80;;;26.90;50.00;;;;;;5071385;28;20202;-68
2022/06/05 11:50:58;;;;;;;0.98;0.95;;;26.90;50.50;;;;;;5076193;28;20258;-67
2022/06/05 11:53:35;;;;;;;1.45;1.35;;;26.90;49.90;;;;;;5071260;28;20201;-70
2022/06/05 11:56:22;;;;;;;1.83;1.40;;;27.00;49.10;;;;;;5076442;28;20220;-70
2022/06/05 11:58:57;;;;;;;1.40;1.30;;;27.10;48.30;;;;;;5069882;28;20220;-69
2022/06/05 12:01:28;;;;;;;1.20;1.10;;;27.00;47.70;;;;;;5069560;28;20622;-69
2022/06/05 12:04:05;;;;;;;1.60;1.50;;;27.00;47.20;;;;;;5076010;28;20215;-69
2022/06/05 12:06:39;;;;;;;1.20;1.20;;;26.80;47.20;;;;;;5063328;28;20254;-71
2022/06/05 12:09:13;;;;;;;2.05;1.48;;;26.90;48.00;;;;;;5067710;28;20200;-68
2022/06/05 12:11:43;;;;;;;1.77;1.65;;;27.00;48.30;;;;;;5076221;28;20207;-69
2022/06/05 12:14:19;;;;;;;1.75;1.65;;;27.10;48.30;;;;;;5074816;28;20196;-69
2022/06/05 12:16:50;;;;;;;2.55;1.77;;;27.20;48.80;;;;;;5067503;28;20229;-69
2022/06/05 12:19:26;;;;;;;1.88;1.60;;;27.30;48.80;;;;;;5076407;28;20205;-69
2022/06/05 12:22:02;;;;;;;2.08;1.65;;;27.30;48.40;;;;;;5063614;28;20198;-67
2022/06/05 12:24:33;;;;;;;3.03;1.52;;;27.40;48.20;;;;;;5072901;28;20283;-67
2022/06/05 12:27:06;;;;;;;2.38;1.63;;;27.40;48.50;;;;;;5069586;28;20646;-67
2022/06/05 12:29:40;;;;;;;1.83;1.73;;;27.50;48.90;;;;;;5071974;28;20362;-68
2022/06/05 12:32:13;;;;;;;2.85;2.28;;;27.50;48.30;;;;;;5080888;28;20200;-68
2022/06/05 12:34:46;;;;;;;2.33;1.67;;;27.50;48.20;;;;;;5061423;28;20205;-69
2022/06/05 12:37:20;;;;;;;3.25;1.67;;;27.60;48.50;;;;;;5074645;28;20213;-69
2022/06/05 12:39:51;;;;;;;1.80;1.70;;;27.70;48.70;;;;;;5074228;28;20212;-68
2022/06/05 12:42:31;;;;;;;2.03;1.45;;;27.80;48.40;;;;;;5070281;28;20300;-68
2022/06/05 12:45:02;;;;;;;1.80;1.70;;;28.00;48.00;;;;;;5067425;28;20574;-69
2022/06/05 12:47:50;;;;;;;1.88;1.73;;;28.10;47.30;;;;;;5076337;28;20216;-69
2022/06/05 12:50:29;;;;;;;2.92;1.63;;;28.20;47.70;;;;;;5072575;28;20201;-68
2022/06/05 12:53:00;;;;;;;1.67;1.38;;;28.20;47.50;;;;;;5068771;28;20201;-67
2022/06/05 12:55:33;;;;;;;1.80;1.70;;;28.30;46.50;;;;;;5080891;28;20201;-69
2022/06/05 12:58:05;;;;;;;2.28;1.70;;;28.30;46.10;;;;;;5070403;28;20217;-68
2022/06/05 13:00:46;;;;;;;2.38;1.90;;;28.30;46.80;;;;;;5076075;28;20217;-69
2022/06/05 13:03:25;;;;;;;2.50;2.00;;;28.20;46.60;;;;;;5073394;28;20264;-70
2022/06/05 13:05:59;;;;;;;1.85;1.75;;;28.10;47.00;;;;;;5083942;28;20242;-70
2022/06/05 13:08:31;;;;;;;1.83;1.73;;;28.00;47.00;;;;;;5078429;28;20209;-70
2022/06/05 13:11:07;;;;;;;1.73;1.40;;;27.90;47.00;;;;;;5076476;28;20665;-68
2022/06/05 13:13:44;;;;;;;1.67;1.58;;;27.80;47.30;;;;;;5076947;28;20211;-70
2022/06/05 13:16:22;;;;;;;1.90;1.80;;;27.70;47.20;;;;;;5075761;28;20239;-69
2022/06/05 13:19:03;;;;;;;1.98;1.50;;;27.60;47.10;;;;;;5078902;28;20209;-71
2022/06/05 13:21:36;;;;;;;2.72;2.00;;;27.40;47.40;;;;;;5079271;28;20204;-69
2022/06/05 13:24:15;;;;;;;1.75;1.65;;;27.30;47.80;;;;;;5085861;28;20208;-70
2022/06/05 13:26:51;;;;;;;1.88;1.70;;;27.30;47.80;;;;;;5079482;28;20197;-69
2022/06/05 13:29:32;;;;;;;1.88;1.45;;;27.30;47.60;;;;;;5078194;28;20223;-69